Time;durP1;ratioP1;P1;durP2;ratioP2;P2;SDS_P1;SDS_P2;PMS_P1;PMS_P2;Temp;Humidity;BMP_temperature;BMP_pressure;BME280_temperature;BME280_humidity;BME280_pressure;Samples;Min_cycle;Max_cycle;Signal;HPM_P1;HPM_P2
2021/03/22 00:00:21;;;;;;;0.00;0.00;;;14.90;63.80;;;;;;4196435;28;20113;-43
2021/03/22 00:02:43;;;;;;;0.00;0.00;;;14.90;63.80;;;;;;4179794;28;20483;-43
2021/03/22 00:05:06;;;;;;;0.00;0.00;;;14.90;64.00;;;;;;4179776;28;20667;-43
2021/03/22 00:07:27;;;;;;;0.00;0.00;;;14.80;64.00;;;;;;4186875;28;20041;-43
2021/03/22 00:09:49;;;;;;;0.80;0.80;;;14.80;64.00;;;;;;4196306;28;20071;-43
2021/03/22 00:12:11;;;;;;;0.65;0.65;;;14.80;64.00;;;;;;4195843;28;20052;-43
2021/03/22 00:14:32;;;;;;;0.00;0.00;;;14.80;64.10;;;;;;4194880;28;20198;-43
2021/03/22 00:16:52;;;;;;;0.32;0.32;;;14.80;64.10;;;;;;4179537;28;20103;-43
2021/03/22 00:19:14;;;;;;;0.17;0.17;;;14.80;64.20;;;;;;4179435;28;20053;-45
2021/03/22 00:21:35;;;;;;;1.70;0.47;;;14.80;64.30;;;;;;4188295;28;20514;-45
2021/03/22 00:23:56;;;;;;;0.00;0.00;;;14.70;64.10;;;;;;4196057;28;20045;-47
2021/03/22 00:26:17;;;;;;;0.00;0.00;;;14.70;64.20;;;;;;4196242;28;20521;-43
2021/03/22 00:28:41;;;;;;;0.93;0.68;;;14.70;64.40;;;;;;4196160;28;20501;-48
2021/03/22 00:31:02;;;;;;;0.00;0.00;;;14.70;65.30;;;;;;4195735;28;20589;-44
2021/03/22 00:33:24;;;;;;;0.00;0.00;;;14.70;64.50;;;;;;4196062;28;20062;-48
2021/03/22 00:35:46;;;;;;;0.10;0.10;;;14.70;64.40;;;;;;4195935;28;20044;-45
2021/03/22 00:38:08;;;;;;;0.00;0.00;;;14.70;64.50;;;;;;4195686;28;20052;-49
2021/03/22 00:40:31;;;;;;;0.00;0.00;;;14.60;64.60;;;;;;4195914;28;20067;-45
2021/03/22 00:42:53;;;;;;;0.00;0.00;;;14.60;64.60;;;;;;4195696;28;20074;-46
2021/03/22 00:45:16;;;;;;;0.00;0.00;;;14.60;64.70;;;;;;4195616;28;20088;-44
2021/03/22 00:47:37;;;;;;;0.00;0.00;;;14.60;64.80;;;;;;4195243;28;20074;-46
2021/03/22 00:49:58;;;;;;;0.00;0.00;;;14.60;64.90;;;;;;4195824;28;20052;-50
2021/03/22 00:52:19;;;;;;;1.20;1.13;;;14.60;64.90;;;;;;4192053;28;20052;-43
2021/03/22 00:54:40;;;;;;;0.00;0.00;;;14.50;64.80;;;;;;4179266;28;20049;-43
2021/03/22 00:57:01;;;;;;;0.00;0.00;;;14.60;65.00;;;;;;4179829;28;20131;-46
2021/03/22 00:59:23;;;;;;;0.00;0.00;;;14.50;65.00;;;;;;4195690;28;20056;-46
2021/03/22 01:01:44;;;;;;;0.10;0.10;;;14.50;65.10;;;;;;4195598;28;20060;-43
2021/03/22 01:04:05;;;;;;;0.30;0.30;;;14.50;65.10;;;;;;4195311;28;20049;-42
2021/03/22 01:06:26;;;;;;;0.00;0.00;;;14.50;65.10;;;;;;4195486;28;20059;-43
2021/03/22 01:08:47;;;;;;;0.75;0.73;;;14.50;65.30;;;;;;4179033;28;20427;-43
2021/03/22 01:11:11;;;;;;;2.42;0.47;;;14.40;65.40;;;;;;4181977;28;20056;-43
2021/03/22 01:13:35;;;;;;;10.43;1.00;;;14.40;65.30;;;;;;4195495;28;20517;-43
2021/03/22 01:16:11;;;;;;;0.20;0.20;;;14.40;65.30;;;;;;4195253;28;20068;-43
2021/03/22 01:18:34;;;;;;;0.00;0.00;;;14.40;65.50;;;;;;4195454;28;20049;-42
2021/03/22 01:20:58;;;;;;;0.00;0.00;;;14.40;65.50;;;;;;4195578;28;20060;-43
2021/03/22 01:23:18;;;;;;;0.25;0.25;;;14.40;65.60;;;;;;4194942;28;20052;-42
2021/03/22 01:25:40;;;;;;;0.88;0.85;;;14.40;65.60;;;;;;4195363;28;20052;-43
2021/03/22 01:28:01;;;;;;;0.00;0.00;;;14.40;65.70;;;;;;4195301;28;20053;-42
2021/03/22 01:30:26;;;;;;;0.17;0.17;;;14.30;65.80;;;;;;4195441;28;20414;-42
2021/03/22 01:32:48;;;;;;;0.00;0.00;;;14.40;65.80;;;;;;4195057;28;20662;-43
2021/03/22 01:35:10;;;;;;;0.50;0.50;;;14.30;65.80;;;;;;4195388;28;20059;-43
2021/03/22 01:37:31;;;;;;;0.00;0.00;;;14.30;65.80;;;;;;4195093;28;20572;-43
2021/03/22 01:39:52;;;;;;;0.10;0.10;;;14.30;65.90;;;;;;4194131;28;20057;-42
2021/03/22 01:42:25;;;;;;;0.00;0.00;;;14.30;65.80;;;;;;4194923;28;20048;-43
2021/03/22 01:44:50;;;;;;;0.10;0.10;;;14.30;65.90;;;;;;4195276;28;20508;-42
2021/03/22 01:47:15;;;;;;;0.00;0.00;;;14.30;65.90;;;;;;4194753;28;20060;-43
2021/03/22 01:49:41;;;;;;;0.15;0.15;;;14.30;66.00;;;;;;4195344;28;20084;-43
2021/03/22 01:52:03;;;;;;;1.17;1.10;;;14.30;66.20;;;;;;4195050;28;20128;-43
2021/03/22 01:54:24;;;;;;;0.00;0.00;;;14.20;66.20;;;;;;4195230;28;20149;-43
2021/03/22 01:56:48;;;;;;;0.45;0.45;;;14.20;66.40;;;;;;4195271;28;20132;-43
2021/03/22 01:59:11;;;;;;;0.00;0.00;;;14.20;66.40;;;;;;4195102;28;20445;-43
2021/03/22 02:01:32;;;;;;;0.22;0.22;;;14.20;66.30;;;;;;4194868;28;20079;-43
2021/03/22 02:03:57;;;;;;;0.00;0.00;;;14.20;66.30;;;;;;4193996;28;20469;-46
2021/03/22 02:06:19;;;;;;;0.90;0.90;;;14.20;66.50;;;;;;4194663;28;20049;-42
2021/03/22 02:08:42;;;;;;;0.00;0.00;;;14.20;66.60;;;;;;4178592;28;20057;-43
2021/03/22 02:11:04;;;;;;;0.00;0.00;;;14.10;66.50;;;;;;4178658;28;20503;-43
2021/03/22 02:13:28;;;;;;;1.20;0.35;;;14.20;66.70;;;;;;4178652;28;20513;-49
2021/03/22 02:15:51;;;;;;;0.00;0.00;;;14.10;66.70;;;;;;4179058;28;20496;-47
2021/03/22 02:18:19;;;;;;;0.10;0.10;;;14.10;66.60;;;;;;4181567;28;20629;-44
2021/03/22 02:21:09;;;;;;;0.00;0.00;;;14.10;66.70;;;;;;4181277;28;20052;-42
2021/03/22 02:24:04;;;;;;;0.00;0.00;;;14.10;66.70;;;;;;4181422;28;20098;-43
2021/03/22 02:26:45;;;;;;;0.00;0.00;;;14.10;66.80;;;;;;4181238;28;20495;-44
2021/03/22 02:29:37;;;;;;;0.00;0.00;;;14.10;66.80;;;;;;4181245;28;20404;-43
2021/03/22 02:32:25;;;;;;;0.00;0.00;;;14.10;66.80;;;;;;4189067;28;20064;-43
2021/03/22 02:34:50;;;;;;;0.40;0.40;;;14.10;66.90;;;;;;4197618;28;20057;-43
2021/03/22 02:37:37;;;;;;;0.32;0.32;;;14.10;66.90;;;;;;4197466;28;20055;-42
2021/03/22 02:40:06;;;;;;;0.00;0.00;;;14.10;67.00;;;;;;4197498;28;20052;-43
2021/03/22 02:42:29;;;;;;;0.05;0.05;;;14.10;67.00;;;;;;4197008;28;20102;-43
2021/03/22 02:44:50;;;;;;;0.00;0.00;;;14.00;67.00;;;;;;4197548;28;20048;-43
2021/03/22 02:47:24;;;;;;;0.05;0.05;;;14.00;67.00;;;;;;4197270;28;20502;-46
2021/03/22 02:49:47;;;;;;;0.00;0.00;;;14.00;67.10;;;;;;4196993;28;20049;-46
2021/03/22 02:52:22;;;;;;;0.00;0.00;;;14.00;67.20;;;;;;4197337;28;20063;-47
2021/03/22 02:54:53;;;;;;;0.00;0.00;;;14.00;67.10;;;;;;4197138;28;20131;-44
2021/03/22 02:57:19;;;;;;;0.00;0.00;;;14.00;67.20;;;;;;4197482;28;20060;-43
2021/03/22 02:59:46;;;;;;;0.00;0.00;;;14.00;67.20;;;;;;4197244;28;20056;-43
2021/03/22 03:02:08;;;;;;;0.00;0.00;;;14.00;67.30;;;;;;4196845;28;20170;-43
2021/03/22 03:04:34;;;;;;;0.00;0.00;;;14.00;67.30;;;;;;4197246;28;20048;-43
2021/03/22 03:06:57;;;;;;;0.00;0.00;;;14.00;67.40;;;;;;4197224;28;20063;-44
2021/03/22 03:09:20;;;;;;;0.00;0.00;;;14.00;67.40;;;;;;4197189;28;20487;-43
2021/03/22 03:11:42;;;;;;;0.00;0.00;;;14.00;67.50;;;;;;4196825;28;20082;-43
2021/03/22 03:14:03;;;;;;;0.00;0.00;;;13.90;67.40;;;;;;4197236;28;20507;-43
2021/03/22 03:16:24;;;;;;;;;;;13.90;67.50;;;;;;4197496;28;20048;-43
2021/03/22 03:18:46;;;;;;;;;;;13.90;67.50;;;;;;4196572;28;19932;-43
2021/03/22 03:21:06;;;;;;;0.00;0.00;;;13.90;67.60;;;;;;4196261;28;19931;-43
2021/03/22 03:23:29;;;;;;;0.10;0.10;;;13.90;67.70;;;;;;4196912;28;20080;-43
2021/03/22 03:25:50;;;;;;;0.00;0.00;;;13.90;67.80;;;;;;4196988;28;20041;-43
2021/03/22 03:28:11;;;;;;;0.65;0.65;;;13.90;67.80;;;;;;4195800;28;20044;-43
2021/03/22 03:30:36;;;;;;;0.00;0.00;;;13.90;67.70;;;;;;4196577;28;20661;-43
2021/03/22 03:32:58;;;;;;;0.00;0.00;;;13.90;67.80;;;;;;4196785;28;20055;-42
2021/03/22 03:35:20;;;;;;;0.00;0.00;;;13.90;68.00;;;;;;4196603;28;20059;-43
2021/03/22 03:37:42;;;;;;;0.05;0.05;;;13.80;68.00;;;;;;4196787;28;20056;-43
2021/03/22 03:40:05;;;;;;;;;;;13.80;68.10;;;;;;4196982;28;20068;-43
2021/03/22 03:42:26;;;;;;;0.40;0.40;;;13.80;68.30;;;;;;4180192;28;20015;-42
2021/03/22 03:44:47;;;;;;;0.20;0.20;;;13.80;68.30;;;;;;4179105;28;20064;-43
2021/03/22 03:47:08;;;;;;;0.00;0.00;;;13.70;68.30;;;;;;4180210;28;20053;-43
2021/03/22 03:49:29;;;;;;;0.00;0.00;;;13.70;68.40;;;;;;4179993;28;20577;-45
2021/03/22 03:51:50;;;;;;;0.00;0.00;;;13.70;68.50;;;;;;4195493;28;20087;-42
2021/03/22 03:54:12;;;;;;;0.00;0.00;;;13.70;68.60;;;;;;4196534;28;20088;-43
2021/03/22 03:56:33;;;;;;;;;;;13.70;68.60;;;;;;4196841;28;20177;-42
2021/03/22 03:58:54;;;;;;;0.45;0.45;;;13.70;68.70;;;;;;4196379;28;19924;-44
2021/03/22 04:01:15;;;;;;;0.52;0.52;;;13.70;68.70;;;;;;4196040;28;20053;-46
2021/03/22 04:03:37;;;;;;;;;;;13.70;68.70;;;;;;4196776;28;20056;-43
2021/03/22 04:06:02;;;;;;;0.00;0.00;;;13.70;68.90;;;;;;4195811;28;19932;-43
2021/03/22 04:08:24;;;;;;;0.00;0.00;;;13.70;68.70;;;;;;4196377;28;20056;-42
2021/03/22 04:10:46;;;;;;;0.10;0.10;;;13.70;68.70;;;;;;4195889;28;20479;-43
2021/03/22 04:13:08;;;;;;;0.00;0.00;;;13.70;69.60;;;;;;4196239;28;20557;-43
2021/03/22 04:15:29;;;;;;;7.82;1.17;;;13.70;68.70;;;;;;4196112;28;20117;-42
2021/03/22 04:17:50;;;;;;;0.00;0.00;;;13.70;68.70;;;;;;4196285;28;20075;-42
2021/03/22 04:20:13;;;;;;;0.00;0.00;;;13.70;68.70;;;;;;4195782;28;20127;-42
2021/03/22 04:22:34;;;;;;;0.00;0.00;;;13.70;68.80;;;;;;4196102;28;20421;-42
2021/03/22 04:24:55;;;;;;;0.00;0.00;;;13.70;68.90;;;;;;4195971;28;20063;-42
2021/03/22 04:27:15;;;;;;;0.00;0.00;;;13.70;68.90;;;;;;4194909;28;20056;-43
2021/03/22 04:29:37;;;;;;;0.00;0.00;;;13.70;69.80;;;;;;4195728;28;20048;-42
2021/03/22 04:31:58;;;;;;;0.00;0.00;;;13.70;68.90;;;;;;4195839;28;20056;-43
2021/03/22 04:34:19;;;;;;;0.00;0.00;;;13.70;68.90;;;;;;4195999;28;20053;-42
2021/03/22 04:36:40;;;;;;;0.00;0.00;;;13.70;68.90;;;;;;4194484;28;20129;-43
2021/03/22 04:39:03;;;;;;;11.95;0.60;;;13.70;68.90;;;;;;4194206;28;20060;-43
2021/03/22 04:41:25;;;;;;;0.00;0.00;;;13.70;68.90;;;;;;4196232;28;20052;-45
2021/03/22 04:43:47;;;;;;;0.00;0.00;;;13.70;68.90;;;;;;4195887;28;20106;-43
2021/03/22 04:46:09;;;;;;;0.00;0.00;;;13.70;68.80;;;;;;4195461;28;20048;-42
2021/03/22 04:48:48;;;;;;;0.00;0.00;;;13.70;68.80;;;;;;4195848;28;20061;-42
2021/03/22 04:51:09;;;;;;;0.00;0.00;;;13.60;68.80;;;;;;4195533;28;20127;-43
2021/03/22 04:53:29;;;;;;;2.08;1.98;;;13.60;68.70;;;;;;4195722;28;20418;-45
2021/03/22 04:55:50;;;;;;;0.03;0.03;;;13.60;68.70;;;;;;4195544;28;20056;-48
2021/03/22 04:58:11;;;;;;;0.00;0.00;;;13.60;68.60;;;;;;4195659;28;20123;-46
2021/03/22 05:00:36;;;;;;;0.00;0.00;;;13.50;68.50;;;;;;4195435;28;20052;-45
2021/03/22 05:02:59;;;;;;;0.00;0.00;;;13.50;68.40;;;;;;4195678;28;20435;-42
2021/03/22 05:05:20;;;;;;;0.93;0.93;;;13.50;68.50;;;;;;4195248;28;20147;-44
2021/03/22 05:07:40;;;;;;;0.00;0.00;;;13.50;68.60;;;;;;4195623;28;20053;-48
2021/03/22 05:10:01;;;;;;;0.00;0.00;;;13.50;68.50;;;;;;4195576;28;20310;-48
2021/03/22 05:12:23;;;;;;;0.00;0.00;;;13.50;68.60;;;;;;4195483;28;20048;-49
2021/03/22 05:14:43;;;;;;;0.00;0.00;;;13.50;68.50;;;;;;4195357;28;20431;-48
2021/03/22 05:17:06;;;;;;;0.00;0.00;;;13.40;68.60;;;;;;4195542;28;20474;-44
2021/03/22 05:19:28;;;;;;;0.10;0.10;;;13.40;68.60;;;;;;4195316;28;20056;-42
2021/03/22 05:21:49;;;;;;;0.00;0.00;;;13.50;68.70;;;;;;4195459;28;20414;-42
2021/03/22 05:24:10;;;;;;;0.00;0.00;;;13.50;68.70;;;;;;4195495;28;20132;-43
2021/03/22 05:26:31;;;;;;;0.00;0.00;;;13.50;68.70;;;;;;4195192;28;20788;-45
2021/03/22 05:28:51;;;;;;;0.00;0.00;;;13.50;68.60;;;;;;4195454;28;20044;-42
2021/03/22 05:31:12;;;;;;;0.00;0.00;;;13.50;68.60;;;;;;4195386;28;20082;-43
2021/03/22 05:33:33;;;;;;;0.00;0.00;;;13.50;68.60;;;;;;4195371;28;20472;-42
2021/03/22 05:35:57;;;;;;;0.00;0.00;;;13.50;68.70;;;;;;4194751;28;20056;-42
2021/03/22 05:38:18;;;;;;;0.00;0.00;;;13.50;68.60;;;;;;4195031;28;20321;-42
2021/03/22 05:40:43;;;;;;;0.00;0.00;;;13.50;68.70;;;;;;4195028;28;20114;-43
2021/03/22 05:43:33;;;;;;;0.00;0.00;;;13.50;68.70;;;;;;4195078;28;20048;-45
2021/03/22 05:46:03;;;;;;;0.10;0.10;;;13.50;68.70;;;;;;4194938;28;20080;-50
2021/03/22 05:48:59;;;;;;;0.00;0.00;;;13.50;68.70;;;;;;4195268;28;20550;-43
2021/03/22 05:51:40;;;;;;;0.00;0.00;;;13.50;68.70;;;;;;4184627;28;20129;-42
2021/03/22 05:54:16;;;;;;;1.10;0.63;;;13.60;68.80;;;;;;4197264;28;20048;-43
2021/03/22 05:56:45;;;;;;;0.00;0.00;;;13.50;69.60;;;;;;4181612;28;20052;-42
2021/03/22 05:59:21;;;;;;;0.00;0.00;;;13.60;68.80;;;;;;4181617;28;20404;-42
2021/03/22 06:01:46;;;;;;;0.00;0.00;;;13.50;68.80;;;;;;4181740;28;20053;-42
2021/03/22 06:04:22;;;;;;;0.00;0.00;;;13.60;68.80;;;;;;4181596;28;20063;-42
2021/03/22 06:07:04;;;;;;;0.00;0.00;;;13.50;68.90;;;;;;4181629;28;20751;-43
2021/03/22 06:09:32;;;;;;;0.00;0.00;;;13.50;69.00;;;;;;4181587;28;20488;-42
2021/03/22 06:12:00;;;;;;;0.00;0.00;;;13.50;69.10;;;;;;4181508;28;20078;-42
2021/03/22 06:14:34;;;;;;;0.00;0.00;;;13.50;69.20;;;;;;4185191;28;20052;-45
2021/03/22 06:17:04;;;;;;;0.00;0.00;;;13.50;69.30;;;;;;4197447;28;20056;-43
2021/03/22 06:19:34;;;;;;;0.00;0.00;;;13.50;69.60;;;;;;4197722;28;20071;-42
2021/03/22 06:21:55;;;;;;;0.00;0.00;;;13.50;69.60;;;;;;4197902;28;20056;-42
2021/03/22 06:24:18;;;;;;;;;;;13.50;69.90;;;;;;4198125;28;20057;-42
2021/03/22 06:26:41;;;;;;;0.63;0.13;;;13.50;70.30;;;;;;4188713;28;19924;-41
2021/03/22 06:29:07;;;;;;;1.75;0.98;;;13.50;71.20;;;;;;4197142;28;20052;-42
2021/03/22 06:31:28;;;;;;;0.00;0.00;;;13.50;71.50;;;;;;4188053;28;20127;-42
2021/03/22 06:33:53;;;;;;;0.90;0.90;;;13.60;72.60;;;;;;4197541;28;20080;-41
2021/03/22 06:36:17;;;;;;;0.13;0.13;;;13.70;73.20;;;;;;4197470;28;20045;-42
2021/03/22 06:38:38;;;;;;;0.00;0.00;;;13.70;72.60;;;;;;4195922;28;20118;-42
2021/03/22 06:41:32;;;;;;;0.82;0.82;;;13.70;72.10;;;;;;4196970;28;20660;-42
2021/03/22 06:43:54;;;;;;;0.00;0.00;;;13.70;71.70;;;;;;4182904;28;20053;-42
2021/03/22 06:46:18;;;;;;;0.00;0.00;;;13.60;71.50;;;;;;4197396;28;20530;-43
2021/03/22 06:48:39;;;;;;;0.00;0.00;;;13.60;71.30;;;;;;4197297;28;20070;-43
2021/03/22 06:51:20;;;;;;;0.00;0.00;;;13.60;71.30;;;;;;4197277;28;20744;-43
2021/03/22 06:53:44;;;;;;;0.00;0.00;;;13.50;71.30;;;;;;4196587;28;20054;-42
2021/03/22 06:56:13;;;;;;;0.00;0.00;;;13.50;71.20;;;;;;4181021;28;20045;-43
2021/03/22 06:58:35;;;;;;;0.00;0.00;;;13.40;71.20;;;;;;4180951;28;20076;-42
2021/03/22 07:01:14;;;;;;;0.00;0.00;;;13.40;71.20;;;;;;4180921;28;20057;-43
2021/03/22 07:03:35;;;;;;;0.00;0.00;;;13.40;71.00;;;;;;4180967;28;20056;-42
2021/03/22 07:05:56;;;;;;;0.20;0.20;;;13.40;70.90;;;;;;4179810;28;20048;-42
2021/03/22 07:08:21;;;;;;;0.00;0.00;;;13.40;70.90;;;;;;4194382;28;20160;-42
2021/03/22 07:10:43;;;;;;;0.00;0.00;;;13.40;70.70;;;;;;4191881;28;20049;-42
2021/03/22 07:13:18;;;;;;;0.00;0.00;;;13.40;70.60;;;;;;4180866;28;20055;-43
2021/03/22 07:15:40;;;;;;;0.00;0.00;;;13.40;70.50;;;;;;4188268;28;20052;-42
2021/03/22 07:18:17;;;;;;;0.00;0.00;;;13.30;70.30;;;;;;4197322;28;20110;-42
2021/03/22 07:20:44;;;;;;;0.00;0.00;;;13.40;70.40;;;;;;4196921;28;20060;-43
2021/03/22 07:23:45;;;;;;;6.07;1.35;;;13.40;70.40;;;;;;4192030;28;20861;-44
2021/03/22 07:26:12;;;;;;;0.00;0.00;;;13.30;70.20;;;;;;4197121;28;20052;-43
2021/03/22 07:28:42;;;;;;;0.00;0.00;;;13.30;70.20;;;;;;4180447;28;20454;-44
2021/03/22 07:31:12;;;;;;;0.00;0.00;;;13.30;70.20;;;;;;4180151;28;20127;-43
2021/03/22 07:33:43;;;;;;;0.00;0.00;;;13.30;70.20;;;;;;4180377;28;20057;-42
2021/03/22 07:36:22;;;;;;;1.10;1.10;;;13.30;70.10;;;;;;4180294;28;20094;-42
2021/03/22 07:39:06;;;;;;;0.00;0.00;;;13.30;70.00;;;;;;4180211;28;20059;-41
2021/03/22 07:41:35;;;;;;;0.00;0.00;;;13.30;70.00;;;;;;4180021;28;20056;-42
2021/03/22 07:44:18;;;;;;;0.10;0.10;;;13.30;69.90;;;;;;4180122;28;20063;-42
2021/03/22 07:46:57;;;;;;;0.00;0.00;;;13.30;69.70;;;;;;4194529;28;20079;-42
2021/03/22 07:49:33;;;;;;;0.00;0.00;;;13.30;69.40;;;;;;4180062;28;20052;-42
2021/03/22 07:52:15;;;;;;;0.00;0.00;;;13.40;69.50;;;;;;4179899;28;20048;-42
2021/03/22 07:54:47;;;;;;;0.00;0.00;;;13.30;69.40;;;;;;4179920;28;20091;-42
2021/03/22 07:57:20;;;;;;;0.00;0.00;;;13.30;69.40;;;;;;4179956;28;20409;-42
2021/03/22 07:59:48;;;;;;;1.08;0.70;;;13.30;69.40;;;;;;4179855;28;20411;-42
2021/03/22 08:02:31;;;;;;;0.00;0.00;;;13.30;69.30;;;;;;4179790;28;20053;-42
2021/03/22 08:05:01;;;;;;;0.90;0.90;;;13.30;69.30;;;;;;4186031;28;20052;-42
2021/03/22 08:07:45;;;;;;;0.00;0.00;;;13.30;70.30;;;;;;4196313;28;20052;-42
2021/03/22 08:10:34;;;;;;;0.00;0.00;;;13.30;69.40;;;;;;4196116;28;20056;-42
2021/03/22 08:13:04;;;;;;;0.00;0.00;;;13.30;69.30;;;;;;4195957;28;20190;-43
2021/03/22 08:15:31;;;;;;;0.00;0.00;;;13.30;69.30;;;;;;4196403;28;20060;-42
2021/03/22 08:18:02;;;;;;;0.00;0.00;;;13.30;69.30;;;;;;4196123;28;20106;-42
2021/03/22 08:20:27;;;;;;;0.00;0.00;;;13.30;69.40;;;;;;4196067;28;20135;-42
2021/03/22 08:22:56;;;;;;;0.00;0.00;;;13.30;69.40;;;;;;4196068;28;20487;-43
2021/03/22 08:25:29;;;;;;;0.00;0.00;;;13.30;69.40;;;;;;4195730;28;20126;-43
2021/03/22 08:28:01;;;;;;;0.00;0.00;;;13.30;69.20;;;;;;4195960;28;20521;-42
2021/03/22 08:30:31;;;;;;;0.00;0.00;;;13.40;69.20;;;;;;4195971;28;20053;-42
2021/03/22 08:32:59;;;;;;;0.00;0.00;;;13.30;69.10;;;;;;4195672;28;20837;-43
2021/03/22 08:35:26;;;;;;;0.00;0.00;;;13.30;69.00;;;;;;4193261;28;20063;-42
2021/03/22 08:37:52;;;;;;;0.00;0.00;;;13.30;69.00;;;;;;4195499;28;20060;-42
2021/03/22 08:40:17;;;;;;;0.00;0.00;;;13.30;68.80;;;;;;4195274;28;20106;-42
2021/03/22 08:42:42;;;;;;;0.00;0.00;;;13.30;68.80;;;;;;4195827;28;20059;-42
2021/03/22 08:45:10;;;;;;;0.00;0.00;;;13.30;68.90;;;;;;4195703;28;20510;-42
2021/03/22 08:47:42;;;;;;;0.00;0.00;;;13.30;68.90;;;;;;4195408;28;20061;-42
2021/03/22 08:50:06;;;;;;;;;;;13.30;68.90;;;;;;4196077;28;20461;-42
2021/03/22 08:52:30;;;;;;;0.00;0.00;;;13.20;68.90;;;;;;4195514;28;19921;-42
2021/03/22 08:55:01;;;;;;;0.00;0.00;;;13.20;68.90;;;;;;4195705;28;20465;-43
2021/03/22 08:57:25;;;;;;;0.00;0.00;;;13.20;69.00;;;;;;4195660;28;20064;-42
2021/03/22 08:59:47;;;;;;;0.00;0.00;;;13.20;69.10;;;;;;4195576;28;20556;-43
2021/03/22 09:02:21;;;;;;;0.08;0.08;;;13.20;69.20;;;;;;4195487;28;20058;-42
2021/03/22 09:04:43;;;;;;;0.00;0.00;;;13.30;69.30;;;;;;4195619;28;20131;-42
2021/03/22 09:07:25;;;;;;;0.00;0.00;;;13.20;69.40;;;;;;4194463;28;20049;-42
2021/03/22 09:09:48;;;;;;;0.00;0.00;;;13.20;69.40;;;;;;4195537;28;20057;-42
2021/03/22 09:12:31;;;;;;;0.00;0.00;;;13.30;69.40;;;;;;4195483;28;20396;-42
2021/03/22 09:14:52;;;;;;;0.00;0.00;;;13.30;69.40;;;;;;4195639;28;20057;-47
2021/03/22 09:17:22;;;;;;;;;;;13.30;70.30;;;;;;4196039;28;20054;-48
2021/03/22 09:20:13;;;;;;;0.00;0.00;;;13.30;69.60;;;;;;4195514;28;20349;-43
2021/03/22 09:22:51;;;;;;;0.00;0.00;;;13.30;70.50;;;;;;4195246;28;20243;-42
2021/03/22 09:25:33;;;;;;;0.00;0.00;;;13.30;69.60;;;;;;4196752;28;20410;-42
2021/03/22 09:28:19;;;;;;;1.98;1.85;;;13.30;69.70;;;;;;4198791;28;20418;-43
2021/03/22 09:30:41;;;;;;;0.00;0.00;;;13.30;69.80;;;;;;4198848;28;20526;-42
2021/03/22 09:33:03;;;;;;;0.15;0.15;;;13.40;69.70;;;;;;4198855;28;20048;-43
2021/03/22 09:36:03;;;;;;;0.00;0.00;;;13.40;69.60;;;;;;4198642;28;20061;-45
2021/03/22 09:38:41;;;;;;;0.00;0.00;;;13.40;69.50;;;;;;4198611;28;20131;-42
2021/03/22 09:41:04;;;;;;;0.20;0.05;;;13.40;69.50;;;;;;4198514;28;20138;-43
2021/03/22 09:43:36;;;;;;;0.45;0.45;;;13.50;69.40;;;;;;4182022;28;20053;-42
2021/03/22 09:46:15;;;;;;;0.70;0.70;;;13.40;69.30;;;;;;4181913;28;20052;-42
2021/03/22 09:48:41;;;;;;;0.10;0.10;;;13.40;69.20;;;;;;4180814;28;20059;-42
2021/03/22 09:51:31;;;;;;;0.00;0.00;;;13.40;69.20;;;;;;4181801;28;20049;-42
2021/03/22 09:53:54;;;;;;;0.00;0.00;;;13.40;69.10;;;;;;4181806;28;20085;-42
2021/03/22 09:56:24;;;;;;;1.02;1.02;;;13.40;69.00;;;;;;4181858;28;20041;-43
2021/03/22 09:58:46;;;;;;;0.00;0.00;;;13.40;69.00;;;;;;4181921;28;20045;-42
2021/03/22 10:01:40;;;;;;;0.00;0.00;;;13.40;68.90;;;;;;4182892;28;20060;-42
2021/03/22 10:04:29;;;;;;;0.00;0.00;;;13.40;68.70;;;;;;4197668;28;20807;-43
2021/03/22 10:07:09;;;;;;;0.00;0.00;;;13.40;68.60;;;;;;4198204;28;20056;-42
2021/03/22 10:09:40;;;;;;;0.00;0.00;;;13.50;68.50;;;;;;4192019;28;20056;-42
2021/03/22 10:12:12;;;;;;;0.00;0.00;;;13.50;68.30;;;;;;4197808;28;20113;-42
2021/03/22 10:14:39;;;;;;;0.00;0.00;;;13.50;68.20;;;;;;4189009;28;20052;-42
2021/03/22 10:17:01;;;;;;;0.00;0.00;;;13.50;68.10;;;;;;4198020;28;20052;-42
2021/03/22 10:19:25;;;;;;;0.00;0.00;;;13.50;67.90;;;;;;4197886;28;20061;-42
2021/03/22 10:21:50;;;;;;;0.13;0.13;;;13.50;67.80;;;;;;4197527;28;20057;-42
2021/03/22 10:24:22;;;;;;;0.08;0.08;;;13.50;67.80;;;;;;4197934;28;20048;-43
2021/03/22 10:26:46;;;;;;;0.50;0.50;;;13.50;67.80;;;;;;4197843;28;20130;-43
2021/03/22 10:29:11;;;;;;;0.00;0.00;;;13.50;67.80;;;;;;4197904;28;20080;-42
2021/03/22 10:31:33;;;;;;;0.00;0.00;;;13.50;67.80;;;;;;4197827;28;20438;-42
2021/03/22 10:33:57;;;;;;;0.00;0.00;;;13.50;67.70;;;;;;4196861;28;20410;-42
2021/03/22 10:36:28;;;;;;;0.00;0.00;;;13.50;67.60;;;;;;4197361;28;20044;-42
2021/03/22 10:38:52;;;;;;;0.00;0.00;;;13.50;67.60;;;;;;4197797;28;20051;-43
2021/03/22 10:41:26;;;;;;;0.15;0.15;;;13.50;67.60;;;;;;4197233;28;20052;-42
2021/03/22 10:43:56;;;;;;;0.00;0.00;;;13.50;67.80;;;;;;4197629;28;20541;-42
2021/03/22 10:46:21;;;;;;;0.00;0.00;;;13.50;67.50;;;;;;4197090;28;20503;-43
2021/03/22 10:48:44;;;;;;;0.13;0.13;;;13.50;67.40;;;;;;4186762;28;20059;-44
2021/03/22 10:51:09;;;;;;;0.00;0.00;;;13.50;67.40;;;;;;4197510;28;20044;-47
2021/03/22 10:53:30;;;;;;;0.10;0.10;;;13.50;67.30;;;;;;4197427;28;20127;-45
2021/03/22 10:55:51;;;;;;;0.00;0.00;;;13.50;67.30;;;;;;4197478;28;20483;-47
2021/03/22 10:58:17;;;;;;;0.28;0.28;;;13.60;67.40;;;;;;4197534;28;20084;-43
2021/03/22 11:00:43;;;;;;;0.00;0.00;;;13.50;67.40;;;;;;4197227;28;20064;-43
2021/03/22 11:03:20;;;;;;;0.00;0.00;;;13.60;67.30;;;;;;4197399;28;20556;-46
2021/03/22 11:05:44;;;;;;;0.10;0.10;;;13.60;67.30;;;;;;4197282;28;20049;-45
2021/03/22 11:08:07;;;;;;;0.00;0.00;;;13.60;67.20;;;;;;4196176;28;20045;-47
2021/03/22 11:10:28;;;;;;;0.00;0.00;;;13.60;67.10;;;;;;4196582;28;20044;-44
2021/03/22 11:12:51;;;;;;;0.80;0.80;;;13.60;67.10;;;;;;4196521;28;20533;-44
2021/03/22 11:15:18;;;;;;;0.25;0.25;;;13.50;66.90;;;;;;4196179;28;20071;-43
2021/03/22 11:17:41;;;;;;;0.00;0.00;;;13.60;67.00;;;;;;4186702;28;20114;-44
2021/03/22 11:20:05;;;;;;;0.10;0.10;;;13.60;67.00;;;;;;4197173;28;20605;-42
2021/03/22 11:22:34;;;;;;;0.00;0.00;;;13.60;67.10;;;;;;4197057;28;20087;-43
2021/03/22 11:24:56;;;;;;;0.00;0.00;;;13.60;67.10;;;;;;4196931;28;20517;-42
2021/03/22 11:27:18;;;;;;;31.67;1.55;;;13.60;67.10;;;;;;4196735;28;20785;-42
2021/03/22 11:29:56;;;;;;;0.00;0.00;;;13.60;67.10;;;;;;4197057;28;20486;-45
2021/03/22 11:32:21;;;;;;;0.00;0.00;;;13.60;67.20;;;;;;4196981;28;20366;-42
2021/03/22 11:34:44;;;;;;;0.10;0.10;;;13.60;67.30;;;;;;4196615;28;20076;-43
2021/03/22 11:37:08;;;;;;;0.77;0.77;;;13.60;67.40;;;;;;4196697;28;20110;-43
2021/03/22 11:39:32;;;;;;;0.00;0.00;;;13.60;67.40;;;;;;4196096;28;20044;-44
2021/03/22 11:42:17;;;;;;;0.65;0.65;;;13.60;67.40;;;;;;4188276;28;20080;-43
2021/03/22 11:44:39;;;;;;;0.73;0.73;;;13.60;67.50;;;;;;4196694;28;20517;-42
2021/03/22 11:47:43;;;;;;;0.65;0.65;;;13.60;67.50;;;;;;4179962;28;20063;-43
2021/03/22 11:50:44;;;;;;;0.03;0.03;;;13.60;67.60;;;;;;4195752;28;20052;-46
2021/03/22 11:53:18;;;;;;;0.00;0.00;;;13.60;67.70;;;;;;4128670;28;20070;-48
2021/03/22 11:55:42;;;;;;;0.00;0.00;;;13.60;67.80;;;;;;4128950;28;20080;-43
2021/03/22 11:58:04;;;;;;;0.57;0.30;;;13.60;67.90;;;;;;4167038;28;20052;-42
2021/03/22 12:00:28;;;;;;;0.00;0.00;;;13.60;67.90;;;;;;4196044;28;20495;-42
2021/03/22 12:02:52;;;;;;;0.05;0.05;;;13.60;67.90;;;;;;4196493;28;20522;-42
2021/03/22 12:05:27;;;;;;;0.00;0.00;;;13.60;68.00;;;;;;4196223;28;20048;-44
2021/03/22 12:07:48;;;;;;;0.25;0.25;;;13.60;67.70;;;;;;4195699;28;20507;-45
2021/03/22 12:10:22;;;;;;;0.00;0.00;;;13.60;67.70;;;;;;4196266;28;20506;-43
2021/03/22 12:12:44;;;;;;;0.03;0.03;;;13.60;67.70;;;;;;4196036;28;20060;-44
2021/03/22 12:15:06;;;;;;;0.00;0.00;;;13.60;67.70;;;;;;4196311;28;20082;-44
2021/03/22 12:17:32;;;;;;;0.00;0.00;;;13.60;67.60;;;;;;4196041;28;20120;-42
2021/03/22 12:19:53;;;;;;;0.28;0.28;;;13.60;67.60;;;;;;4195986;28;20063;-44
2021/03/22 12:22:16;;;;;;;0.00;0.00;;;13.60;67.70;;;;;;4196000;28;20076;-43
2021/03/22 12:24:38;;;;;;;0.00;0.00;;;13.60;67.80;;;;;;4195230;28;20056;-43
2021/03/22 12:26:59;;;;;;;2.35;0.90;;;13.60;67.90;;;;;;4179670;28;20049;-43
2021/03/22 12:29:21;;;;;;;;;;;13.60;68.00;;;;;;4194019;28;20128;-43
2021/03/22 12:31:45;;;;;;;0.00;0.00;;;13.60;68.10;;;;;;4195886;28;20012;-42
2021/03/22 12:34:15;;;;;;;0.00;0.00;;;13.60;68.10;;;;;;4195861;28;20419;-43
2021/03/22 12:36:36;;;;;;;0.00;0.00;;;13.60;68.00;;;;;;4195799;28;20049;-42
2021/03/22 12:38:57;;;;;;;0.00;0.00;;;13.60;67.80;;;;;;4195939;28;20082;-43
2021/03/22 12:41:21;;;;;;;1.02;0.90;;;13.60;68.70;;;;;;4195468;28;20060;-43
2021/03/22 12:43:42;;;;;;;0.00;0.00;;;13.60;67.90;;;;;;4195664;28;20087;-41
2021/03/22 12:46:04;;;;;;;0.03;0.03;;;13.60;68.00;;;;;;4195830;28;20102;-48
2021/03/22 12:48:25;;;;;;;;;;;13.60;68.00;;;;;;4196166;28;20061;-44